HKNW/WIL METAR and TAF weather

Enter ICAO airport designator
Station Type Date Time Source
HKNW METAR 2020/02/29 01:00 UTC NOAA

HKNW 290100Z 00000KT 9999 SCT020 18/15 Q1020


Station Type Date Time Source
HKNW Decoded METAR 2020/02/29 01:00 UTC NOAA

Nairobi / Wilson, Kenya (HKNW) 01-19S 036-49E 1679M
Feb 28, 2020 - 08:00 PM EST / 2020.02.29 0100 UTC
Wind: Calm:0
Visibility: greater than 7 mile(s):0
Sky conditions: partly cloudy
Temperature: 64 F (18 C)
Dew Point: 59 F (15 C)
Relative Humidity: 82%
Pressure (altimeter): 30.12 in. Hg (1020 hPa)
ob: HKNW 290100Z 00000KT 9999 SCT020 18/15 Q1020
cycle: 1

Station Type Date Time Source
HKNW TAF 2020/02/28 18:21 UTC NOAA

TAF TAF HKNW 281700Z 2818/2918 07005KT 9999 BKN020
BECMG 2908/2911 06010KT SCT024

Example: see airport list